Time,TemperatureF,DewpointF,PressureIn,WindDirection,WindDirectionDegrees,WindSpeedMPH,WindSpeedGustMPH,Humidity,HourlyPrecipIn,Conditions,Clouds,dailyrainin,SolarRadiationWatts/m^2,SoftwareType,DateUTC
2013-01-16 00:02:00,25.0,20.0,-100.00,North,350,1.0,6.0,82,0.00,,,0.00,1.000000,,2013-01-16 08:02:00,
2013-01-16 00:32:00,24.0,22.0,-100.00,NW,310,2.0,4.0,90,0.00,,,0.00,1.000000,,2013-01-16 08:32:00,
2013-01-16 00:42:00,24.0,22.0,-100.00,NW,310,2.0,4.0,90,0.00,,,0.00,1.000000,,2013-01-16 08:42:00,
2013-01-16 00:52:00,24.0,22.0,-100.00,NW,310,2.0,4.0,90,0.00,,,0.00,1.000000,,2013-01-16 08:52:00,
2013-01-16 01:02:00,24.0,22.0,-100.00,NW,310,2.0,4.0,90,0.00,,,0.00,1.000000,,2013-01-16 09:02:00,
2013-01-16 01:33:00,22.0,20.0,-100.00,WSW,238,1.0,5.0,90,0.00,,,0.00,1.000000,,2013-01-16 09:33:00,
2013-01-16 01:43:00,22.0,20.0,-100.00,WSW,238,1.0,5.0,90,0.00,,,0.00,1.000000,,2013-01-16 09:43:00,
2013-01-16 01:52:00,22.0,20.0,-100.00,WSW,238,1.0,5.0,90,0.00,,,0.00,1.000000,,2013-01-16 09:52:00,
2013-01-16 02:02:00,22.0,20.0,-100.00,WSW,238,1.0,5.0,90,0.00,,,0.00,1.000000,,2013-01-16 10:02:00,
2013-01-16 02:32:00,21.0,19.0,-100.00,SW,233,2.0,3.0,92,0.00,,,0.00,1.000000,,2013-01-16 10:32:00,
2013-01-16 02:43:00,21.0,19.0,-100.00,SW,233,2.0,3.0,92,0.00,,,0.00,1.000000,,2013-01-16 10:43:00,
2013-01-16 02:52:00,21.0,19.0,-100.00,SW,233,2.0,3.0,92,0.00,,,0.00,1.000000,,2013-01-16 10:52:00,
2013-01-16 03:02:00,21.0,19.0,-100.00,SW,233,2.0,3.0,92,0.00,,,0.00,1.000000,,2013-01-16 11:02:00,
2013-01-16 03:33:00,20.0,17.0,-100.00,SW,218,1.0,5.0,88,0.00,,,0.00,1.000000,,2013-01-16 11:33:00,
2013-01-16 03:43:00,20.0,17.0,-100.00,SW,218,1.0,5.0,88,0.00,,,0.00,1.000000,,2013-01-16 11:43:00,
2013-01-16 03:53:00,20.0,17.0,-100.00,SW,218,1.0,5.0,88,0.00,,,0.00,1.000000,,2013-01-16 11:53:00,
2013-01-16 04:02:00,20.0,17.0,-100.00,SW,218,1.0,5.0,88,0.00,,,0.00,1.000000,,2013-01-16 12:02:00,
2013-01-16 04:33:00,19.0,17.0,-100.00,SW,214,3.0,5.0,91,0.00,,,0.00,1.000000,,2013-01-16 12:33:00,
2013-01-16 04:43:00,19.0,17.0,-100.00,SW,214,3.0,5.0,91,0.00,,,0.00,1.000000,,2013-01-16 12:43:00,
2013-01-16 04:53:00,19.0,17.0,-100.00,SW,214,3.0,5.0,91,0.00,,,0.00,1.000000,,2013-01-16 12:53:00,
2013-01-16 05:02:00,19.0,17.0,-100.00,SW,214,3.0,5.0,91,0.00,,,0.00,1.000000,,2013-01-16 13:02:00,
2013-01-16 05:33:00,19.0,17.0,-100.00,NNE,18,3.0,5.0,90,0.00,,,0.00,1.000000,,2013-01-16 13:33:00,
2013-01-16 05:43:00,19.0,17.0,-100.00,NNE,18,3.0,5.0,90,0.00,,,0.00,1.000000,,2013-01-16 13:43:00,
2013-01-16 05:53:00,19.0,17.0,-100.00,NNE,18,3.0,5.0,90,0.00,,,0.00,1.000000,,2013-01-16 13:53:00,
2013-01-16 06:02:00,19.0,17.0,-100.00,NNE,18,3.0,5.0,90,0.00,,,0.00,1.000000,,2013-01-16 14:02:00,
2013-01-16 06:33:00,19.0,17.0,-100.00,SSW,208,2.0,4.0,91,0.00,,,0.00,1.000000,,2013-01-16 14:33:00,
2013-01-16 06:43:00,19.0,17.0,-100.00,SSW,208,2.0,4.0,91,0.00,,,0.00,1.000000,,2013-01-16 14:43:00,
2013-01-16 06:53:00,19.0,17.0,-100.00,SSW,208,2.0,4.0,91,0.00,,,0.00,1.000000,,2013-01-16 14:53:00,
2013-01-16 07:02:00,19.0,17.0,-100.00,SSW,208,2.0,4.0,91,0.00,,,0.00,1.000000,,2013-01-16 15:02:00,
2013-01-16 07:33:00,17.0,14.0,-100.00,SW,233,2.0,4.0,89,0.00,,,0.00,1.000000,,2013-01-16 15:33:00,
2013-01-16 07:43:00,17.0,14.0,-100.00,SW,233,2.0,4.0,89,0.00,,,0.00,1.000000,,2013-01-16 15:43:00,
2013-01-16 07:53:00,17.0,14.0,-100.00,SW,233,2.0,4.0,89,0.00,,,0.00,1.000000,,2013-01-16 15:53:00,
2013-01-16 08:03:00,17.0,14.0,-100.00,SW,233,2.0,4.0,89,0.00,,,0.00,1.000000,,2013-01-16 16:03:00,
2013-01-16 08:33:00,17.0,14.0,-100.00,SSW,197,2.0,3.0,89,0.00,,,0.00,6.000000,,2013-01-16 16:33:00,
2013-01-16 08:43:00,17.0,14.0,-100.00,SSW,197,2.0,3.0,89,0.00,,,0.00,6.000000,,2013-01-16 16:43:00,
2013-01-16 08:53:00,17.0,14.0,-100.00,SSW,197,2.0,3.0,89,0.00,,,0.00,6.000000,,2013-01-16 16:53:00,
2013-01-16 09:02:00,17.0,14.0,-100.00,SSW,197,2.0,3.0,89,0.00,,,0.00,6.000000,,2013-01-16 17:02:00,
2013-01-16 09:33:00,24.0,20.0,-100.00,ESE,117,1.0,4.0,86,0.00,,,-99.99,93.000000,,2013-01-16 17:33:00,
2013-01-16 09:44:00,24.0,20.0,-100.00,ESE,117,1.0,4.0,86,0.00,,,-99.99,93.000000,,2013-01-16 17:44:00,
2013-01-16 09:53:00,24.0,20.0,-100.00,ESE,117,1.0,4.0,86,0.00,,,-99.99,93.000000,,2013-01-16 17:53:00,
2013-01-16 10:02:00,24.0,20.0,-100.00,ESE,117,1.0,4.0,86,0.00,,,-99.99,93.000000,,2013-01-16 18:02:00,
2013-01-16 10:33:00,31.0,25.0,-100.00,ESE,110,2.0,4.0,78,0.00,,,0.00,272.000000,,2013-01-16 18:33:00,
2013-01-16 10:43:00,31.0,25.0,-100.00,ESE,110,2.0,4.0,78,0.00,,,0.00,272.000000,,2013-01-16 18:43:00,
2013-01-16 10:53:00,31.0,25.0,-100.00,ESE,110,2.0,4.0,78,0.00,,,0.00,272.000000,,2013-01-16 18:53:00,
2013-01-16 11:02:00,31.0,25.0,-100.00,ESE,110,2.0,4.0,78,0.00,,,0.00,272.000000,,2013-01-16 19:02:00,
2013-01-16 11:33:00,35.0,27.0,-100.00,NE,56,2.0,4.0,73,0.00,,,-99.99,358.000000,,2013-01-16 19:33:00,
2013-01-16 11:43:00,35.0,27.0,-100.00,NE,56,2.0,4.0,73,0.00,,,-99.99,358.000000,,2013-01-16 19:43:00,
2013-01-16 11:53:00,35.0,27.0,-100.00,NE,56,2.0,4.0,73,0.00,,,-99.99,358.000000,,2013-01-16 19:53:00,
2013-01-16 12:02:00,35.0,27.0,-100.00,NE,56,2.0,4.0,73,0.00,,,-99.99,358.000000,,2013-01-16 20:02:00,
2013-01-16 12:33:00,40.0,25.0,-100.00,NE,55,2.0,4.0,54,0.00,,,0.00,398.000000,,2013-01-16 20:33:00,
2013-01-16 12:43:00,40.0,25.0,-100.00,NE,55,2.0,4.0,54,0.00,,,0.00,398.000000,,2013-01-16 20:43:00,
2013-01-16 12:53:00,40.0,25.0,-100.00,NE,55,2.0,4.0,54,0.00,,,0.00,398.000000,,2013-01-16 20:53:00,
2013-01-16 13:02:00,40.0,25.0,-100.00,NE,55,2.0,4.0,54,0.00,,,0.00,398.000000,,2013-01-16 21:02:00,
2013-01-16 13:33:00,45.0,26.0,-100.00,ENE,57,2.0,4.0,47,0.00,,,0.00,397.000000,,2013-01-16 21:33:00,
2013-01-16 13:43:00,45.0,26.0,-100.00,ENE,57,2.0,4.0,47,0.00,,,0.00,397.000000,,2013-01-16 21:43:00,
2013-01-16 13:53:00,45.0,26.0,-100.00,ENE,57,2.0,4.0,47,0.00,,,0.00,397.000000,,2013-01-16 21:53:00,
2013-01-16 14:02:00,45.0,26.0,-100.00,ENE,57,2.0,4.0,47,0.00,,,0.00,397.000000,,2013-01-16 22:02:00,
2013-01-16 14:33:00,47.0,27.0,-100.00,ENE,74,2.0,4.0,45,0.00,,,0.00,351.000000,,2013-01-16 22:33:00,
2013-01-16 14:43:00,47.0,27.0,-100.00,ENE,74,2.0,4.0,45,0.00,,,0.00,351.000000,,2013-01-16 22:43:00,
2013-01-16 14:52:00,47.0,27.0,-100.00,ENE,74,2.0,4.0,45,0.00,,,0.00,351.000000,,2013-01-16 22:52:00,
2013-01-16 15:02:00,47.0,27.0,-100.00,ENE,74,2.0,4.0,45,0.00,,,0.00,351.000000,,2013-01-16 23:02:00,
2013-01-16 15:33:00,47.0,27.0,-100.00,WNW,301,3.0,6.0,46,0.00,,,0.00,263.000000,,2013-01-16 23:33:00,
2013-01-16 15:43:00,47.0,27.0,-100.00,WNW,301,3.0,6.0,46,0.00,,,0.00,263.000000,,2013-01-16 23:43:00,
2013-01-16 15:53:00,47.0,27.0,-100.00,WNW,301,3.0,6.0,46,0.00,,,0.00,263.000000,,2013-01-16 23:53:00,
2013-01-16 16:02:00,47.0,27.0,-100.00,WNW,301,3.0,6.0,46,0.00,,,0.00,263.000000,,2013-01-17 00:02:00,
2013-01-16 16:33:00,41.0,23.0,-100.00,SW,229,1.0,3.0,48,0.00,,,0.00,99.000000,,2013-01-17 00:33:00,
2013-01-16 16:42:00,41.0,23.0,-100.00,SW,229,1.0,3.0,48,0.00,,,0.00,99.000000,,2013-01-17 00:42:00,
2013-01-16 16:52:00,41.0,23.0,-100.00,SW,229,1.0,3.0,48,0.00,,,0.00,99.000000,,2013-01-17 00:52:00,
2013-01-16 17:33:00,37.0,27.0,-100.00,SW,218,1.0,3.0,67,0.00,,,0.00,10.000000,,2013-01-17 01:33:00,
2013-01-16 17:43:00,37.0,27.0,-100.00,SW,218,1.0,3.0,67,0.00,,,0.00,10.000000,,2013-01-17 01:43:00,
2013-01-16 17:52:00,37.0,27.0,-100.00,SW,218,1.0,3.0,67,0.00,,,0.00,10.000000,,2013-01-17 01:52:00,
2013-01-16 18:02:00,37.0,27.0,-100.00,SW,218,1.0,3.0,67,0.00,,,0.00,10.000000,,2013-01-17 02:02:00,
2013-01-16 18:32:00,32.0,23.0,-100.00,SW,215,3.0,4.0,70,0.00,,,0.00,1.000000,,2013-01-17 02:32:00,
2013-01-16 18:43:00,32.0,23.0,-100.00,SW,215,3.0,4.0,70,0.00,,,0.00,1.000000,,2013-01-17 02:43:00,
2013-01-16 18:52:00,32.0,23.0,-100.00,SW,215,3.0,4.0,70,0.00,,,0.00,1.000000,,2013-01-17 02:52:00,
2013-01-16 19:02:00,32.0,23.0,-100.00,SW,215,3.0,4.0,70,0.00,,,0.00,1.000000,,2013-01-17 03:02:00,
2013-01-16 19:33:00,31.0,25.0,-100.00,NNW,330,0.0,4.0,79,0.00,,,0.00,1.000000,,2013-01-17 03:33:00,
2013-01-16 19:43:00,31.0,25.0,-100.00,NNW,330,0.0,4.0,79,0.00,,,0.00,1.000000,,2013-01-17 03:43:00,
2013-01-16 19:52:00,31.0,25.0,-100.00,NNW,330,0.0,4.0,79,0.00,,,0.00,1.000000,,2013-01-17 03:52:00,
2013-01-16 20:02:00,31.0,25.0,-100.00,NNW,330,0.0,4.0,79,0.00,,,0.00,1.000000,,2013-01-17 04:02:00,
2013-01-16 20:33:00,29.0,25.0,-100.00,SW,232,2.0,5.0,83,0.00,,,0.00,1.000000,,2013-01-17 04:33:00,
2013-01-16 20:43:00,29.0,25.0,-100.00,SW,232,2.0,5.0,83,0.00,,,0.00,1.000000,,2013-01-17 04:43:00,
2013-01-16 20:52:00,29.0,25.0,-100.00,SW,232,2.0,5.0,83,0.00,,,0.00,1.000000,,2013-01-17 04:52:00,
2013-01-16 21:03:00,29.0,25.0,-100.00,SW,232,2.0,5.0,83,0.00,,,0.00,1.000000,,2013-01-17 05:03:00,
2013-01-16 21:33:00,30.0,25.0,-100.00,SW,227,4.0,5.0,83,0.00,,,0.00,1.000000,,2013-01-17 05:33:00,
2013-01-16 21:43:00,30.0,25.0,-100.00,SW,227,4.0,5.0,83,0.00,,,0.00,1.000000,,2013-01-17 05:43:00,
2013-01-16 21:53:00,30.0,25.0,-100.00,SW,227,4.0,5.0,83,0.00,,,0.00,1.000000,,2013-01-17 05:53:00,
2013-01-16 22:02:00,30.0,25.0,-100.00,SW,227,4.0,5.0,83,0.00,,,0.00,1.000000,,2013-01-17 06:02:00,
2013-01-16 22:33:00,28.0,24.0,-100.00,SW,218,4.0,5.0,85,0.00,,,-99.99,1.000000,,2013-01-17 06:33:00,
2013-01-16 22:42:00,28.0,24.0,-100.00,SW,218,4.0,5.0,85,0.00,,,-99.99,1.000000,,2013-01-17 06:42:00,
2013-01-16 22:52:00,28.0,24.0,-100.00,SW,218,4.0,5.0,85,0.00,,,-99.99,1.000000,,2013-01-17 06:52:00,
2013-01-16 23:02:00,28.0,24.0,-100.00,SW,218,4.0,5.0,85,0.00,,,-99.99,1.000000,,2013-01-17 07:02:00,
2013-01-16 23:33:00,25.0,22.0,-100.00,SSW,206,1.0,3.0,88,0.00,,,0.00,1.000000,,2013-01-17 07:33:00,
2013-01-16 23:42:00,25.0,22.0,-100.00,SSW,206,1.0,3.0,88,0.00,,,0.00,1.000000,,2013-01-17 07:42:00,
2013-01-16 23:52:00,25.0,22.0,-100.00,SSW,206,1.0,3.0,88,0.00,,,0.00,1.000000,,2013-01-17 07:52:00,